Time;durP1;ratioP1;P1;durP2;ratioP2;P2;SDS_P1;SDS_P2;PMS_P1;PMS_P2;Temp;Humidity;BMP_temperature;BMP_pressure;BME280_temperature;BME280_humidity;BME280_pressure;Samples;Min_cycle;Max_cycle;Signal;HPM_P1;HPM_P2
2020/12/14 00:00:40;;;;;;;4.05;2.35;;;;;;;10.35;67.50;100519.78;4830061;29;20057;-86
2020/12/14 00:03:06;;;;;;;;;;;;;;;10.67;67.19;100509.94;4828851;29;20033;-87
2020/12/14 00:05:32;;;;;;;5.88;2.53;;;;;;;10.75;66.99;100501.41;4846886;29;20350;-87
2020/12/14 00:07:57;;;;;;;5.00;1.88;;;;;;;10.70;66.64;100498.09;4835614;29;20045;-88
2020/12/14 00:10:23;;;;;;;;;;;;;;;10.80;66.66;100496.66;4867510;29;20049;-86
2020/12/14 00:12:49;;;;;;;7.53;1.83;;;;;;;10.28;68.08;100492.13;4886406;29;19919;-87
2020/12/14 00:15:14;;;;;;;;;;;;;;;10.61;67.05;100497.66;4870528;29;20535;-87
2020/12/14 00:17:39;;;;;;;5.55;1.98;;;;;;;10.43;67.43;100504.00;4870271;29;19915;-86
2020/12/14 00:20:05;;;;;;;5.00;2.00;;;;;;;10.76;66.77;100501.31;4873430;29;20559;-85
2020/12/14 00:22:31;;;;;;;;;;;;;;;10.96;65.85;100502.97;4871515;29;20116;-86
2020/12/14 00:24:56;;;;;;;4.45;1.65;;;;;;;10.53;67.48;100496.28;4871559;29;19962;-85
2020/12/14 00:27:22;;;;;;;5.40;1.58;;;;;;;10.70;67.27;100490.84;4874260;29;20026;-83
2020/12/14 00:29:47;;;;;;;3.47;1.67;;;;;;;10.53;67.31;100488.19;4873798;29;20037;-85
2020/12/14 00:32:12;;;;;;;;;;;;;;;10.96;65.98;100486.72;4891439;29;20411;-86
2020/12/14 00:34:38;;;;;;;2.00;1.58;;;;;;;11.08;66.34;100490.59;4869855;29;19930;-85
2020/12/14 00:37:07;;;;;;;;;;;;;;;10.56;67.51;100494.28;4854279;29;20033;-85
2020/12/14 00:39:32;;;;;;;4.38;1.70;;;;;;;10.59;67.06;100501.38;4865621;29;19916;-85
2020/12/14 00:41:58;;;;;;;6.93;1.75;;;;;;;10.96;66.28;100488.53;4849763;29;20092;-84
2020/12/14 00:44:24;;;;;;;;;;;;;;;10.86;66.47;100490.91;4863721;29;20548;-85
2020/12/14 00:46:49;;;;;;;8.75;2.00;;;;;;;11.11;65.69;100501.25;4865322;29;20006;-85
2020/12/14 00:49:14;;;;;;;3.38;1.73;;;;;;;10.75;66.78;100483.38;4880758;29;20029;-85
2020/12/14 00:51:40;;;;;;;4.55;1.85;;;;;;;11.37;65.45;100479.97;4864138;29;20025;-85
2020/12/14 00:54:06;;;;;;;3.92;1.88;;;;;;;10.75;67.90;100490.59;4881079;29;20547;-85
2020/12/14 00:56:31;;;;;;;5.30;2.33;;;;;;;10.89;67.20;100495.28;4864719;29;20029;-85
2020/12/14 00:58:57;;;;;;;3.72;1.75;;;;;;;10.65;67.67;100476.69;4880680;29;20037;-85
2020/12/14 01:01:22;;;;;;;5.45;1.80;;;;;;;10.85;66.89;100478.31;4880898;29;20145;-86
2020/12/14 01:03:47;;;;;;;3.67;1.58;;;;;;;10.97;66.83;100477.63;4880397;29;20025;-85
2020/12/14 01:06:13;;;;;;;6.20;2.75;;;;;;;10.81;67.64;100476.75;4863711;29;20055;-84
2020/12/14 01:08:40;;;;;;;13.83;2.43;;;;;;;11.10;66.35;100485.97;4864068;29;20029;-84
2020/12/14 01:11:05;;;;;;;6.82;1.98;;;;;;;11.28;66.08;100470.53;4863923;29;20289;-84
2020/12/14 01:13:32;;;;;;;7.40;1.75;;;;;;;10.96;67.22;100470.50;4863670;29;20037;-84
2020/12/14 01:15:57;;;;;;;6.50;2.05;;;;;;;10.91;67.19;100477.97;4864072;29;20021;-84
2020/12/14 01:18:22;;;;;;;4.78;1.50;;;;;;;10.51;68.34;100463.03;4880201;29;20094;-84
2020/12/14 01:20:48;;;;;;;;;;;;;;;11.35;65.82;100465.63;4864209;29;20109;-86
2020/12/14 01:23:15;;;;;;;4.00;2.08;;;;;;;11.44;65.88;100456.09;4881590;29;20003;-84
2020/12/14 01:25:40;;;;;;;4.55;2.70;;;;;;;10.80;67.46;100445.22;4867674;29;20025;-85
2020/12/14 01:28:07;;;;;;;4.68;1.80;;;;;;;11.20;66.29;100456.53;4868220;29;20452;-84
2020/12/14 01:30:34;;;;;;;5.53;2.25;;;;;;;11.16;66.57;100477.50;4891145;29;20040;-84
2020/12/14 01:33:00;;;;;;;6.45;2.15;;;;;;;11.24;67.17;100468.94;4875941;29;20468;-84
2020/12/14 01:35:25;;;;;;;;;;;;;;;10.90;67.34;100476.25;4887266;29;20407;-85
2020/12/14 01:37:52;;;;;;;5.72;2.00;;;;;;;11.05;67.00;100479.03;4852062;29;19948;-83
2020/12/14 01:40:20;;;;;;;6.55;2.80;;;;;;;10.76;68.11;100471.56;4867045;29;20160;-85
2020/12/14 01:42:47;;;;;;;3.58;1.70;;;;;;;11.04;67.64;100472.78;4867028;29;20056;-85
2020/12/14 01:45:12;;;;;;;6.13;2.03;;;;;;;11.01;67.68;100466.66;4851678;29;20044;-86
2020/12/14 01:47:42;;;;;;;4.80;2.13;;;;;;;11.23;67.15;100469.91;4883463;29;20395;-85
2020/12/14 01:50:11;;;;;;;5.75;2.35;;;;;;;11.08;67.22;100484.28;4867116;29;20029;-84
2020/12/14 01:52:39;;;;;;;2.70;1.65;;;;;;;11.16;66.90;100465.81;4883413;29;20029;-85
2020/12/14 01:55:06;;;;;;;5.32;2.40;;;;;;;11.34;67.14;100485.56;4867153;29;20029;-85
2020/12/14 01:57:32;;;;;;;4.55;2.10;;;;;;;10.99;68.51;100480.25;4867330;29;20036;-84
2020/12/14 01:59:58;;;;;;;6.65;2.28;;;;;;;10.94;69.33;100479.66;4883574;29;20551;-85
2020/12/14 02:02:25;;;;;;;5.43;2.50;;;;;;;11.35;68.08;100469.22;4866663;29;20036;-86
2020/12/14 02:04:51;;;;;;;3.80;2.42;;;;;;;11.18;69.24;100475.56;4851493;29;20033;-85
2020/12/14 02:07:17;;;;;;;7.40;2.85;;;;;;;11.18;69.27;100464.72;4866544;29;20040;-85
2020/12/14 02:09:42;;;;;;;;;;;;;;;11.38;68.71;100465.44;4883355;29;20029;-84
2020/12/14 02:12:08;;;;;;;3.70;2.45;;;;;;;10.62;71.58;100474.16;4882879;29;19918;-85
2020/12/14 02:14:37;;;;;;;5.43;2.70;;;;;;;10.74;71.57;100459.97;4883274;29;20061;-85
2020/12/14 02:17:03;;;;;;;4.07;2.83;;;;;;;10.79;71.21;100467.81;4866759;29;20032;-85
2020/12/14 02:19:29;;;;;;;4.97;2.95;;;;;;;11.19;69.92;100460.22;4866090;29;20123;-85
2020/12/14 02:21:57;;;;;;;5.15;2.85;;;;;;;10.95;70.07;100467.88;4883048;29;20057;-85
2020/12/14 02:24:23;;;;;;;7.10;3.25;;;;;;;10.82;70.42;100470.38;4882898;29;20050;-85
2020/12/14 02:26:48;;;;;;;7.20;3.42;;;;;;;11.12;70.12;100456.09;4882924;29;20028;-85
2020/12/14 02:29:16;;;;;;;;;;;;;;;11.17;69.74;100456.69;4866643;29;20033;-85
2020/12/14 02:31:41;;;;;;;5.90;2.95;;;;;;;10.81;71.14;100460.53;4866156;29;19923;-85
2020/12/14 02:34:07;;;;;;;;;;;;;;;11.09;70.94;100448.16;4882754;29;20108;-85
2020/12/14 02:36:32;;;;;;;7.07;3.42;;;;;;;10.86;71.08;100466.53;4866080;29;19958;-85
2020/12/14 02:38:57;;;;;;;5.07;2.97;;;;;;;11.23;70.55;100447.38;4866501;29;20090;-84
2020/12/14 02:41:23;;;;;;;4.43;3.20;;;;;;;10.71;71.01;100453.84;4865794;29;20088;-84
2020/12/14 02:43:48;;;;;;;3.80;3.40;;;;;;;11.03;71.08;100446.66;4882682;29;20041;-84
2020/12/14 02:46:13;;;;;;;5.10;3.70;;;;;;;10.84;70.77;100449.53;4865763;29;20340;-86
2020/12/14 02:48:39;;;;;;;6.38;3.80;;;;;;;11.50;69.28;100448.50;4882461;29;20108;-85
2020/12/14 02:51:04;;;;;;;;;;;;;;;11.44;69.58;100448.84;4866137;29;20480;-85
2020/12/14 02:53:29;;;;;;;4.40;3.78;;;;;;;11.30;70.16;100437.94;4865646;29;20425;-85
2020/12/14 02:55:55;;;;;;;5.38;4.05;;;;;;;10.95;71.25;100438.97;4866097;29;20119;-85
2020/12/14 02:58:20;;;;;;;5.47;3.70;;;;;;;10.99;71.82;100432.44;4865722;29;20080;-85
2020/12/14 03:00:47;;;;;;;;;;;;;;;11.10;71.34;100428.25;4883404;29;20033;-85
2020/12/14 03:03:12;;;;;;;4.68;4.20;;;;;;;10.87;71.91;100441.22;4865603;29;20037;-84
2020/12/14 03:05:37;;;;;;;5.25;4.18;;;;;;;10.90;71.90;100435.66;4882569;29;20033;-84
2020/12/14 03:08:03;;;;;;;5.60;5.03;;;;;;;11.17;71.22;100433.22;4866381;29;20025;-85
2020/12/14 03:10:28;;;;;;;;;;;;;;;11.37;70.62;100427.59;4883295;29;20037;-85
2020/12/14 03:12:53;;;;;;;6.88;4.70;;;;;;;11.55;70.11;100433.78;4882302;29;19916;-84
2020/12/14 03:15:19;;;;;;;5.70;5.00;;;;;;;11.30;70.76;100436.09;4865790;29;20056;-83
2020/12/14 03:17:44;;;;;;;5.95;4.65;;;;;;;11.25;70.13;100438.19;4866234;29;20028;-84
2020/12/14 03:20:10;;;;;;;5.32;4.82;;;;;;;11.29;70.46;100437.06;4866172;29;20052;-84
2020/12/14 03:22:35;;;;;;;;;;;;;;;11.29;70.40;100431.66;4890095;29;20029;-84
2020/12/14 03:25:00;;;;;;;5.95;5.38;;;;;;;10.64;72.99;100431.66;4887106;29;19916;-84
2020/12/14 03:27:26;;;;;;;;;;;;;;;10.97;72.44;100423.50;4867282;29;20428;-85
2020/12/14 03:29:51;;;;;;;5.43;5.03;;;;;;;11.02;71.86;100419.66;4865444;29;20520;-85
2020/12/14 03:32:16;;;;;;;7.05;6.43;;;;;;;11.46;70.87;100421.69;4865712;29;20293;-85
2020/12/14 03:34:41;;;;;;;;;;;;;;;11.25;71.73;100415.69;4866745;29;20391;-84
2020/12/14 03:37:07;;;;;;;6.25;5.65;;;;;;;11.11;72.21;100414.63;4866109;29;20495;-84
2020/12/14 03:39:32;;;;;;;7.47;6.70;;;;;;;11.23;71.39;100418.47;4882525;29;20484;-85
2020/12/14 03:41:57;;;;;;;7.97;6.57;;;;;;;11.73;69.34;100426.44;4865636;29;20025;-85
2020/12/14 03:44:23;;;;;;;8.20;7.40;;;;;;;11.31;70.74;100418.88;4865555;29;20463;-84
2020/12/14 03:46:49;;;;;;;;;;;;;;;11.03;72.43;100424.13;4865354;29;20045;-84
2020/12/14 03:49:15;;;;;;;11.60;8.60;;;;;;;11.29;71.88;100419.94;4882150;29;19915;-84
2020/12/14 03:51:40;;;;;;;10.00;8.40;;;;;;;10.98;72.73;100424.41;4865796;29;20498;-84
2020/12/14 03:54:05;;;;;;;9.55;8.45;;;;;;;11.46;71.16;100413.56;4881887;29;20399;-84
2020/12/14 03:56:30;;;;;;;;;;;;;;;11.58;71.18;100407.41;4883217;29;20025;-85
2020/12/14 03:58:56;;;;;;;11.48;10.18;;;;;;;11.24;72.45;100392.25;4883136;29;20019;-84
2020/12/14 04:01:25;;;;;;;13.50;9.75;;;;;;;11.84;69.75;100403.16;4882292;29;20083;-84
2020/12/14 04:03:51;;;;;;;9.85;8.68;;;;;;;11.25;72.01;100392.16;4881804;29;20032;-84
2020/12/14 04:06:19;;;;;;;14.07;9.95;;;;;;;11.11;72.83;100397.47;4865170;29;20033;-85
2020/12/14 04:08:45;;;;;;;9.80;8.55;;;;;;;11.17;72.07;100395.31;4881612;29;20029;-85
2020/12/14 04:11:10;;;;;;;9.90;8.90;;;;;;;11.10;72.69;100399.34;4865021;29;20040;-84
2020/12/14 04:13:36;;;;;;;11.82;7.82;;;;;;;11.49;71.45;100405.25;4864989;29;20411;-84
2020/12/14 04:16:01;;;;;;;10.90;8.10;;;;;;;11.21;72.49;100401.41;4864926;29;20033;-85
2020/12/14 04:18:26;;;;;;;8.73;7.88;;;;;;;11.25;72.42;100397.59;4881684;29;20029;-85
2020/12/14 04:20:51;;;;;;;;;;;;;;;11.25;72.36;100391.31;4866448;29;20053;-84
2020/12/14 04:23:17;;;;;;;10.10;7.90;;;;;;;11.26;73.47;100395.72;4869254;29;19922;-84
2020/12/14 04:25:42;;;;;;;8.50;7.70;;;;;;;11.41;71.52;100393.97;4853671;29;20101;-84
2020/12/14 04:28:07;;;;;;;9.73;7.10;;;;;;;11.39;72.04;100396.78;4869294;29;20036;-84
2020/12/14 04:30:33;;;;;;;;;;;;;;;11.32;72.86;100392.66;4869561;29;20479;-85
2020/12/14 04:32:58;;;;;;;8.90;7.80;;;;;;;11.48;71.48;100388.09;4885758;29;19926;-85
2020/12/14 04:35:24;;;;;;;;;;;;;;;10.96;74.30;100389.28;4869568;29;20128;-85
2020/12/14 04:37:50;;;;;;;8.18;7.47;;;;;;;11.29;72.67;100384.72;4885561;29;19926;-83
2020/12/14 04:40:15;;;;;;;8.75;7.90;;;;;;;11.34;72.57;100377.22;4869035;29;20605;-86
2020/12/14 04:42:40;;;;;;;;;;;;;;;11.36;74.36;100375.28;4885958;29;20033;-84
2020/12/14 04:45:07;;;;;;;9.55;8.68;;;;;;;11.53;72.02;100369.75;4868771;29;19916;-84
2020/12/14 04:47:32;;;;;;;9.38;8.48;;;;;;;11.63;71.26;100364.66;4868690;29;20021;-83
2020/12/14 04:49:59;;;;;;;10.88;9.68;;;;;;;11.92;70.57;100331.34;4885459;29;20085;-82
2020/12/14 04:52:24;;;;;;;10.18;9.05;;;;;;;11.20;72.79;100353.63;4869302;29;20031;-82
2020/12/14 04:54:50;;;;;;;11.05;9.30;;;;;;;11.60;72.12;100358.56;4867070;29;20060;-82
2020/12/14 04:57:20;;;;;;;10.23;9.00;;;;;;;11.77;71.18;100362.97;4842809;29;20033;-82
2020/12/14 04:59:45;;;;;;;12.68;8.35;;;;;;;11.68;70.90;100370.69;4842309;29;20041;-82
2020/12/14 05:02:11;;;;;;;9.48;8.65;;;;;;;11.88;70.26;100380.31;4845145;29;20037;-82
2020/12/14 05:04:38;;;;;;;;;;;;;;;11.72;71.00;100386.75;4846514;29;20054;-83
2020/12/14 05:07:04;;;;;;;9.65;8.65;;;;;;;11.62;71.30;100386.41;4861873;29;19955;-82
2020/12/14 05:09:29;;;;;;;;;;;;;;;11.79;71.25;100382.69;4862450;29;20029;-83
2020/12/14 05:11:55;;;;;;;10.63;9.63;;;;;;;11.58;71.63;100384.84;4861636;29;20012;-83
2020/12/14 05:14:22;;;;;;;11.90;9.95;;;;;;;11.89;70.99;100386.59;4840839;29;20370;-84
2020/12/14 05:16:49;;;;;;;10.85;9.75;;;;;;;11.89;70.83;100382.03;4844950;29;20066;-85
2020/12/14 05:19:22;;;;;;;13.40;10.18;;;;;;;11.75;71.58;100379.31;4857985;29;20485;-85
2020/12/14 05:21:49;;;;;;;11.88;10.60;;;;;;;11.68;71.93;100381.53;4853661;29;20033;-85
2020/12/14 05:24:21;;;;;;;12.50;10.30;;;;;;;11.71;71.93;100391.28;4851438;29;20493;-86
2020/12/14 05:26:48;;;;;;;12.05;10.27;;;;;;;11.98;70.46;100388.78;4836076;29;20033;-84
2020/12/14 05:29:23;;;;;;;13.05;10.55;;;;;;;11.78;71.50;100386.41;4852391;29;20041;-86
2020/12/14 05:32:04;;;;;;;12.48;11.15;;;;;;;12.17;70.49;100376.84;4850939;29;20030;-87
2020/12/14 05:34:35;;;;;;;12.70;11.38;;;;;;;12.11;70.45;100385.31;4835468;29;20179;-85
2020/12/14 05:37:02;;;;;;;11.18;10.13;;;;;;;11.76;71.65;100393.72;4853014;29;20034;-86
2020/12/14 05:39:29;;;;;;;11.65;9.70;;;;;;;12.02;70.68;100381.34;4836077;29;20078;-83
2020/12/14 05:42:07;;;;;;;10.20;9.20;;;;;;;11.53;72.99;100388.72;4834955;29;20049;-86
2020/12/14 05:44:34;;;;;;;10.55;9.45;;;;;;;11.91;71.15;100378.38;4849629;29;20027;-85
2020/12/14 05:46:59;;;;;;;10.10;8.60;;;;;;;11.81;72.50;100376.22;4836020;29;20063;-85
2020/12/14 05:49:25;;;;;;;9.88;8.65;;;;;;;12.08;71.31;100386.41;4851659;29;20034;-85
2020/12/14 05:51:58;;;;;;;;;;;;;;;11.75;71.86;100384.72;4852179;29;20086;-83
2020/12/14 05:54:33;;;;;;;10.32;8.27;;;;;;;12.41;70.35;100358.16;4834920;29;20319;-83
2020/12/14 05:57:02;;;;;;;9.38;8.40;;;;;;;11.98;72.08;100366.22;4851442;29;20082;-83
2020/12/14 05:59:32;;;;;;;9.63;8.60;;;;;;;11.94;72.05;100365.56;4833891;29;20057;-84
2020/12/14 06:01:57;;;;;;;10.25;8.82;;;;;;;11.94;71.70;100365.56;4833527;29;20046;-84
2020/12/14 06:04:24;;;;;;;10.05;8.77;;;;;;;12.01;72.16;100330.81;4850614;29;20041;-85
2020/12/14 06:06:54;;;;;;;11.00;9.82;;;;;;;12.15;71.97;100338.06;4850604;29;20053;-84
2020/12/14 06:09:21;;;;;;;10.70;9.25;;;;;;;11.66;74.64;100369.88;4833976;29;20041;-83
2020/12/14 06:11:51;;;;;;;10.40;8.70;;;;;;;11.58;73.75;100353.22;4834306;29;20050;-84
2020/12/14 06:14:19;;;;;;;10.50;7.82;;;;;;;11.49;74.23;100360.06;4852046;29;20034;-82
2020/12/14 06:16:46;;;;;;;10.05;8.95;;;;;;;12.26;71.09;100359.09;4833258;29;20034;-83
2020/12/14 06:19:13;;;;;;;9.15;8.35;;;;;;;11.91;72.88;100372.94;4848677;29;20126;-83
2020/12/14 06:21:58;;;;;;;10.95;8.75;;;;;;;11.91;72.57;100375.66;4833696;29;20041;-82
2020/12/14 06:24:25;;;;;;;10.07;9.07;;;;;;;12.03;72.17;100370.41;4833294;29;20085;-85
2020/12/14 06:26:51;;;;;;;10.20;8.20;;;;;;;11.88;73.03;100376.72;4835851;29;20047;-85
2020/12/14 06:29:36;;;;;;;9.88;8.57;;;;;;;12.04;72.37;100368.56;4849657;29;20034;-84
2020/12/14 06:32:23;;;;;;;9.57;8.68;;;;;;;11.90;74.12;100372.09;4833922;29;20038;-82
2020/12/14 06:34:49;;;;;;;14.02;9.18;;;;;;;11.61;74.94;100372.00;4848759;29;20085;-84
2020/12/14 06:37:21;;;;;;;12.75;9.65;;;;;;;12.17;73.66;100371.41;4834950;29;20030;-82
2020/12/14 06:39:57;;;;;;;10.75;9.65;;;;;;;12.03;73.84;100364.09;4851143;29;20476;-83
2020/12/14 06:42:23;;;;;;;9.30;7.78;;;;;;;11.79;73.91;100386.31;4833191;29;20030;-84
2020/12/14 06:44:49;;;;;;;;;;;;;;;11.93;73.31;100365.66;4812983;29;20473;-86
2020/12/14 06:47:16;;;;;;;9.02;8.23;;;;;;;11.99;73.25;100370.69;4828252;29;19945;-86
2020/12/14 06:49:43;;;;;;;13.00;8.65;;;;;;;11.86;73.25;100365.09;4827975;29;20041;-86
2020/12/14 06:52:08;;;;;;;11.10;10.20;;;;;;;12.33;72.02;100372.16;4828142;29;20081;-84
2020/12/14 06:54:42;;;;;;;12.23;9.23;;;;;;;12.23;72.55;100344.75;4844035;29;20475;-84
2020/12/14 06:57:09;;;;;;;11.35;9.82;;;;;;;12.42;71.46;100359.88;4827529;29;20026;-86
2020/12/14 06:59:36;;;;;;;12.65;9.07;;;;;;;12.13;72.88;100362.56;4827569;29;20029;-84
2020/12/14 07:02:07;;;;;;;9.43;8.52;;;;;;;12.53;71.49;100370.03;4844511;29;20427;-84
2020/12/14 07:04:32;;;;;;;12.35;8.45;;;;;;;12.06;72.71;100369.34;4828281;29;20421;-84
2020/12/14 07:07:07;;;;;;;8.05;7.25;;;;;;;12.17;72.22;100372.28;4843715;29;20037;-84
2020/12/14 07:09:33;;;;;;;10.15;7.72;;;;;;;12.45;71.63;100369.66;4843098;29;20477;-81
2020/12/14 07:12:11;;;;;;;9.73;8.00;;;;;;;12.56;71.55;100377.97;4856357;29;20070;-85
2020/12/14 07:14:49;;;;;;;8.45;7.70;;;;;;;12.33;71.76;100377.59;4828975;29;20034;-85
2020/12/14 07:17:18;;;;;;;7.47;6.78;;;;;;;12.41;71.84;100382.56;4826009;29;20396;-85
2020/12/14 07:19:48;;;;;;;9.93;6.82;;;;;;;12.61;71.30;100375.00;4842193;29;20118;-84
2020/12/14 07:22:14;;;;;;;7.53;6.75;;;;;;;12.17;72.47;100377.69;4832095;29;20026;-84
2020/12/14 07:24:40;;;;;;;;;;;;;;;12.50;72.05;100390.13;4854768;29;20131;-84
2020/12/14 07:27:09;;;;;;;7.32;6.32;;;;;;;12.64;71.19;100391.09;4836250;29;19980;-84
2020/12/14 07:29:34;;;;;;;6.40;5.38;;;;;;;12.41;71.86;100388.84;4850928;29;20384;-85
2020/12/14 07:32:03;;;;;;;;;;;;;;;12.63;71.13;100402.91;4851507;29;20026;-84
2020/12/14 07:34:28;;;;;;;6.00;5.30;;;;;;;12.74;70.76;100398.53;4836269;29;20378;-84
2020/12/14 07:36:54;;;;;;;6.53;5.32;;;;;;;12.49;71.42;100391.06;4836367;29;20029;-85
2020/12/14 07:39:19;;;;;;;6.75;5.38;;;;;;;12.95;70.15;100395.41;4835118;29;20507;-85
2020/12/14 07:41:47;;;;;;;5.90;3.83;;;;;;;12.86;70.45;100407.75;4845601;29;20120;-84
2020/12/14 07:44:12;;;;;;;4.47;4.10;;;;;;;12.99;70.34;100410.53;4862015;29;20033;-87
2020/12/14 07:46:37;;;;;;;5.18;4.53;;;;;;;13.51;68.95;100397.22;4845206;29;20421;-86
2020/12/14 07:49:11;;;;;;;4.93;4.47;;;;;;;13.26;68.60;100409.72;4862408;29;20396;-86
2020/12/14 07:51:44;;;;;;;6.40;4.30;;;;;;;12.77;70.55;100422.78;4843905;29;20604;-86
2020/12/14 07:54:18;;;;;;;5.32;3.95;;;;;;;13.35;69.05;100420.00;4854987;29;20453;-88
2020/12/14 07:56:51;;;;;;;5.45;4.30;;;;;;;13.25;68.91;100424.25;4845924;29;20026;-88
2020/12/14 07:59:25;;;;;;;5.97;3.10;;;;;;;13.36;68.98;100426.28;4861708;29;20044;-87
2020/12/14 08:01:51;;;;;;;3.85;3.05;;;;;;;13.28;69.02;100424.06;4861031;29;20025;-87
2020/12/14 08:04:20;;;;;;;;;;;;;;;12.94;70.24;100447.97;4845112;29;20458;-87
2020/12/14 08:06:46;;;;;;;4.55;2.80;;;;;;;13.21;69.09;100441.72;4860893;29;20011;-86
2020/12/14 08:09:11;;;;;;;;;;;;;;;13.58;68.24;100431.19;4861788;29;20463;-85
2020/12/14 08:11:37;;;;;;;4.55;3.17;;;;;;;13.27;68.86;100446.75;4831539;29;19962;-86
2020/12/14 08:14:03;;;;;;;;;;;;;;;13.34;69.12;100439.97;4826407;29;20030;-84
2020/12/14 08:16:31;;;;;;;2.95;2.67;;;;;;;13.27;68.84;100439.50;4842393;29;20331;-84
2020/12/14 08:18:57;;;;;;;4.30;2.92;;;;;;;13.35;69.08;100441.72;4842013;29;20038;-86
2020/12/14 08:21:23;;;;;;;;;;;;;;;13.65;67.41;100446.09;4842219;29;20050;-86
2020/12/14 08:23:49;;;;;;;3.83;2.70;;;;;;;13.63;67.58;100448.03;4826293;29;20400;-86
2020/12/14 08:26:22;;;;;;;2.65;2.45;;;;;;;13.73;67.36;100446.44;4842089;29;20118;-85
2020/12/14 08:28:49;;;;;;;6.65;3.03;;;;;;;13.69;67.45;100444.03;4826270;29;20087;-86
2020/12/14 08:31:14;;;;;;;2.70;2.50;;;;;;;13.64;67.94;100450.66;4843029;29;20059;-85
2020/12/14 08:34:10;;;;;;;;;;;;;;;13.79;67.19;100454.19;4827319;29;20034;-85
2020/12/14 08:36:38;;;;;;;3.85;2.47;;;;;;;13.96;66.62;100449.47;4833794;29;19960;-85
2020/12/14 08:39:12;;;;;;;2.67;2.42;;;;;;;13.80;66.84;100447.78;4855221;29;20159;-85
2020/12/14 08:41:38;;;;;;;5.70;2.78;;;;;;;13.62;67.64;100454.47;4841695;29;20029;-84
2020/12/14 08:44:03;;;;;;;;;;;;;;;13.75;66.97;100449.06;4842452;29;20384;-85
2020/12/14 08:46:28;;;;;;;2.28;1.80;;;;;;;13.48;68.51;100460.78;4841198;29;19940;-85
2020/12/14 08:48:56;;;;;;;;;;;;;;;13.57;68.29;100462.94;4843004;29;20124;-85
2020/12/14 08:51:32;;;;;;;4.72;2.05;;;;;;;13.71;66.78;100459.28;4843371;29;20004;-84
2020/12/14 08:54:15;;;;;;;;;;;;;;;13.93;66.82;100464.13;4860091;29;20025;-85
2020/12/14 08:56:41;;;;;;;2.13;1.85;;;;;;;14.09;66.22;100453.09;4861195;29;19972;-84
2020/12/14 08:59:12;;;;;;;;;;;;;;;14.05;66.52;100459.69;4829213;29;20414;-84
2020/12/14 09:01:37;;;;;;;2.40;1.83;;;;;;;13.93;66.93;100465.97;4844352;29;19979;-83
2020/12/14 09:04:03;;;;;;;;;;;;;;;13.81;66.38;100479.44;4849399;29;20478;-82
2020/12/14 09:06:37;;;;;;;3.92;1.58;;;;;;;13.38;68.79;100479.56;4848090;29;20286;-83
2020/12/14 09:09:07;;;;;;;2.70;1.63;;;;;;;13.85;66.72;100477.38;4860116;29;20045;-84
2020/12/14 09:11:35;;;;;;;5.47;2.08;;;;;;;13.88;66.92;100487.19;4859808;29;20496;-84
2020/12/14 09:14:03;;;;;;;3.30;2.15;;;;;;;13.95;66.57;100493.94;4860460;29;20041;-84
2020/12/14 09:16:29;;;;;;;4.40;1.70;;;;;;;13.69;66.43;100488.41;4859024;29;20034;-84
2020/12/14 09:18:55;;;;;;;;;;;;;;;14.22;65.55;100479.44;4860861;29;20049;-84
2020/12/14 09:21:20;;;;;;;3.83;1.60;;;;;;;13.90;66.45;100490.66;4843984;29;19919;-84
2020/12/14 09:24:05;;;;;;;;;;;;;;;14.25;65.52;100501.88;4844537;29;20096;-84
2020/12/14 09:26:30;;;;;;;1.73;1.55;;;;;;;14.28;65.00;100498.06;4845126;29;19916;-85
2020/12/14 09:28:56;;;;;;;;;;;;;;;14.25;65.82;100509.16;4862319;29;20032;-83
2020/12/14 09:31:21;;;;;;;5.45;1.90;;;;;;;14.55;64.49;100514.31;4860553;29;19980;-83
2020/12/14 09:33:47;;;;;;;2.17;1.50;;;;;;;14.43;65.10;100531.50;4844139;29;20476;-83
2020/12/14 09:36:15;;;;;;;;;;;;;;;14.22;65.14;100534.75;4860380;29;20037;-83
2020/12/14 09:38:40;;;;;;;5.65;1.77;;;;;;;14.29;65.36;100529.75;4843032;29;20318;-85
2020/12/14 09:41:06;;;;;;;;;;;;;;;14.32;65.60;100534.97;4844139;29;20050;-84
2020/12/14 09:43:31;;;;;;;2.72;1.58;;;;;;;14.34;65.10;100533.91;4844140;29;20359;-85
2020/12/14 09:45:56;;;;;;;;;;;;;;;14.16;65.61;100543.28;4863185;29;20085;-83
2020/12/14 09:48:22;;;;;;;2.00;1.60;;;;;;;14.63;64.29;100527.44;4863622;29;19920;-85
2020/12/14 09:50:47;;;;;;;;;;;;;;;14.56;64.04;100537.84;4863453;29;20029;-84
2020/12/14 09:53:12;;;;;;;3.90;1.50;;;;;;;14.98;63.02;100529.56;4847429;29;19923;-85
2020/12/14 09:55:41;;;;;;;;;;;;;;;14.91;63.69;100530.97;4847726;29;20033;-85
2020/12/14 09:58:06;;;;;;;3.95;1.58;;;;;;;14.51;64.23;100540.91;4864287;29;19959;-85
2020/12/14 10:00:32;;;;;;;;;;;;;;;14.62;64.45;100537.47;4863689;29;20054;-85
2020/12/14 10:02:57;;;;;;;3.23;1.80;;;;;;;14.50;64.54;100541.88;4863873;29;20302;-85
2020/12/14 10:05:25;;;;;;;4.60;1.60;;;;;;;15.36;61.96;100529.50;4845928;29;20298;-85
2020/12/14 10:07:51;;;;;;;3.28;1.50;;;;;;;15.63;60.64;100533.06;4846792;29;20029;-84
2020/12/14 10:10:16;;;;;;;;;;;;;;;15.12;62.46;100537.59;4841821;29;20086;-85
2020/12/14 10:12:42;;;;;;;3.40;2.20;;;;;;;14.82;62.94;100541.50;4843584;29;20370;-84
2020/12/14 10:15:09;;;;;;;;;;;;;;;14.25;64.90;100542.69;4833677;29;20291;-84
2020/12/14 10:17:35;;;;;;;5.30;1.45;;;;;;;14.88;63.93;100541.06;4844018;29;20426;-87
2020/12/14 10:20:02;;;;;;;2.45;1.60;;;;;;;14.86;63.52;100545.75;4846230;29;20049;-86
2020/12/14 10:22:27;;;;;;;2.30;1.30;;;;;;;15.28;62.09;100550.09;4846961;29;20026;-88
2020/12/14 10:24:52;;;;;;;;;;;;;;;15.83;60.87;100553.41;4845491;29;20510;-84
2020/12/14 10:27:17;;;;;;;2.22;1.48;;;;;;;14.89;62.90;100566.47;4845726;29;20371;-84
2020/12/14 10:29:43;;;;;;;;;;;;;;;14.93;63.04;100569.84;4839430;29;20025;-85
2020/12/14 10:32:08;;;;;;;2.67;1.33;;;;;;;15.21;62.11;100560.59;4827107;29;19917;-86
2020/12/14 10:34:33;;;;;;;;;;;;;;;15.55;61.57;100556.28;4827900;29;20476;-86
2020/12/14 10:37:00;;;;;;;3.67;1.50;;;;;;;15.45;61.90;100557.94;4852932;29;19920;-86
2020/12/14 10:39:25;;;;;;;;;;;;;;;15.10;62.42;100564.09;4863210;29;20031;-87
2020/12/14 10:41:53;;;;;;;2.03;1.20;;;;;;;15.13;62.48;100568.47;4836236;29;19974;-86
2020/12/14 10:44:19;;;;;;;2.67;1.30;;;;;;;15.37;61.70;100566.69;4843858;29;20691;-85
2020/12/14 10:46:44;;;;;;;;;;;;;;;15.73;60.49;100558.63;4845970;29;20746;-87
2020/12/14 10:49:10;;;;;;;2.22;1.27;;;;;;;15.47;61.01;100561.41;4828693;29;19959;-84
2020/12/14 10:51:36;;;;;;;4.40;1.40;;;;;;;15.13;62.04;100561.13;4827018;29;20109;-82
2020/12/14 10:54:02;;;;;;;;;;;;;;;15.32;62.13;100573.44;4846157;29;20073;-81
2020/12/14 10:56:27;;;;;;;3.42;1.60;;;;;;;14.96;62.77;100569.63;4834741;29;19916;-84
2020/12/14 10:58:52;;;;;;;;;;;;;;;15.53;60.84;100571.00;4851328;29;20429;-83
2020/12/14 11:01:18;;;;;;;2.90;1.75;;;;;;;15.26;62.06;100571.16;4847299;29;19916;-86
2020/12/14 11:03:43;;;;;;;;;;;;;;;15.67;61.06;100567.25;4880938;29;20441;-85
2020/12/14 11:06:08;;;;;;;5.57;1.67;;;;;;;15.38;61.74;100578.44;4864838;29;19956;-85
2020/12/14 11:08:34;;;;;;;;;;;;;;;15.28;61.67;100570.06;4856376;29;21190;-82
2020/12/14 11:10:59;;;;;;;3.50;1.67;;;;;;;15.74;60.46;100574.03;4849389;29;19928;-84
2020/12/14 11:13:24;;;;;;;;;;;;;;;15.27;61.30;100571.03;4845460;29;20037;-83
2020/12/14 11:15:49;;;;;;;4.68;1.33;;;;;;;15.23;61.51;100575.84;4847205;29;20044;-84
2020/12/14 11:18:16;;;;;;;;;;;;;;;15.62;61.09;100572.19;4846338;29;20383;-82
2020/12/14 11:20:42;;;;;;;4.45;1.63;;;;;;;15.72;59.84;100592.38;4843814;29;20002;-82
2020/12/14 11:23:07;;;;;;;;;;;;;;;15.69;61.02;100573.50;4841674;29;20109;-84
2020/12/14 11:25:32;;;;;;;2.20;1.25;;;;;;;15.41;61.73;100573.66;4842872;29;19962;-84
2020/12/14 11:27:58;;;;;;;;;;;;;;;15.70;61.09;100580.69;4826968;29;20041;-84
2020/12/14 11:30:23;;;;;;;1.88;1.27;;;;;;;15.14;61.86;100581.97;4843777;29;19963;-85
2020/12/14 11:32:48;;;;;;;;;;;;;;;15.41;61.16;100580.94;4844621;29;20033;-86
2020/12/14 11:35:14;;;;;;;3.43;1.60;;;;;;;14.54;63.32;100589.69;4827823;29;20011;-85
2020/12/14 11:37:39;;;;;;;;;;;;;;;14.53;63.87;100581.63;4828047;29;20862;-86